Time;durP1;ratioP1;P1;durP2;ratioP2;P2;SDS_P1;SDS_P2;PMS_P1;PMS_P2;Temp;Humidity;BMP_temperature;BMP_pressure;BME280_temperature;BME280_humidity;BME280_pressure;Samples;Min_cycle;Max_cycle;Signal;HPM_P1;HPM_P2
2021/08/18 00:00:50;;;;;;;22.17;12.70;;;15.20;99.90;;;;;;5090833;28;20488;-71
2021/08/18 00:03:16;;;;;;;23.20;13.45;;;15.20;99.90;;;;;;5091571;28;20030;-72
2021/08/18 00:05:44;;;;;;;20.08;11.40;;;15.30;99.90;;;;;;5089510;28;20192;-72
2021/08/18 00:08:11;;;;;;;25.00;12.98;;;15.30;99.90;;;;;;5090205;28;20024;-72
2021/08/18 00:10:39;;;;;;;23.70;13.05;;;15.20;99.90;;;;;;5089867;28;20028;-72
2021/08/18 00:13:06;;;;;;;22.45;12.48;;;15.30;99.90;;;;;;5090503;28;20031;-72
2021/08/18 00:15:32;;;;;;;26.13;12.57;;;15.30;99.90;;;;;;5090883;28;20103;-71
2021/08/18 00:18:00;;;;;;;23.40;13.27;;;15.20;99.90;;;;;;5091759;28;20056;-72
2021/08/18 00:20:30;;;;;;;24.70;12.48;;;15.30;99.90;;;;;;5091081;28;20048;-71
2021/08/18 00:22:57;;;;;;;22.90;12.50;;;15.20;99.90;;;;;;5090422;28;20052;-71
2021/08/18 00:25:25;;;;;;;21.17;12.00;;;15.20;99.90;;;;;;5091312;28;20028;-74
2021/08/18 00:27:51;;;;;;;24.40;13.00;;;15.20;99.90;;;;;;5091982;28;20028;-72
2021/08/18 00:30:17;;;;;;;23.13;12.18;;;15.10;99.90;;;;;;5089172;28;20035;-74
2021/08/18 00:32:43;;;;;;;22.80;11.40;;;15.20;99.90;;;;;;5090283;28;20028;-72
2021/08/18 00:35:09;;;;;;;26.85;13.13;;;15.20;99.90;;;;;;5089989;28;20120;-71
2021/08/18 00:37:34;;;;;;;22.27;12.05;;;15.20;99.90;;;;;;5089627;28;20089;-71
2021/08/18 00:40:00;;;;;;;23.52;12.82;;;15.10;99.90;;;;;;5073524;28;20028;-72
2021/08/18 00:42:26;;;;;;;20.90;12.40;;;15.10;99.90;;;;;;5070469;28;20461;-72
2021/08/18 00:44:56;;;;;;;19.90;10.57;;;15.10;99.90;;;;;;5070617;28;20354;-72
2021/08/18 00:47:21;;;;;;;20.90;11.73;;;15.20;99.90;;;;;;5070785;28;20024;-72
2021/08/18 00:49:47;;;;;;;19.80;11.40;;;15.10;99.90;;;;;;5071026;28;20086;-71
2021/08/18 00:52:12;;;;;;;17.50;10.80;;;15.20;99.90;;;;;;5070857;28;20480;-72
2021/08/18 00:54:38;;;;;;;19.52;9.55;;;15.10;99.90;;;;;;5070650;28;20712;-72
2021/08/18 00:57:06;;;;;;;16.52;9.85;;;15.20;99.90;;;;;;5070684;28;20110;-72
2021/08/18 00:59:32;;;;;;;17.50;9.65;;;15.20;99.90;;;;;;5070770;28;20377;-72
2021/08/18 01:01:59;;;;;;;20.80;10.60;;;15.20;99.90;;;;;;5069392;28;20112;-71
2021/08/18 01:04:25;;;;;;;17.73;10.02;;;15.20;99.90;;;;;;5069935;28;20526;-72
2021/08/18 01:06:50;;;;;;;15.07;8.70;;;15.20;99.90;;;;;;5070686;28;20021;-71
2021/08/18 01:09:20;;;;;;;19.17;10.15;;;15.20;99.90;;;;;;5068994;28;20020;-72
2021/08/18 01:11:49;;;;;;;16.48;10.45;;;15.20;99.90;;;;;;5070977;28;20029;-72
2021/08/18 01:14:16;;;;;;;17.30;9.43;;;15.20;99.90;;;;;;5070903;28;20157;-72
2021/08/18 01:16:44;;;;;;;14.02;8.70;;;15.20;99.90;;;;;;5068479;28;20029;-72
2021/08/18 01:19:12;;;;;;;16.25;8.20;;;15.30;99.90;;;;;;5070345;28;20025;-72
2021/08/18 01:21:42;;;;;;;14.93;8.68;;;15.30;99.90;;;;;;5069509;28;20048;-73
2021/08/18 01:24:09;;;;;;;15.35;8.70;;;15.30;99.90;;;;;;5070945;28;20106;-72
2021/08/18 01:26:37;;;;;;;16.77;8.10;;;15.40;99.90;;;;;;5068832;28;20028;-72
2021/08/18 01:29:03;;;;;;;15.93;7.65;;;15.40;99.90;;;;;;5070808;28;20029;-72
2021/08/18 01:31:29;;;;;;;14.32;8.27;;;15.40;99.90;;;;;;5070026;28;20064;-72
2021/08/18 01:33:58;;;;;;;13.38;7.60;;;15.40;99.90;;;;;;5070610;28;20063;-72
2021/08/18 01:36:23;;;;;;;13.20;7.53;;;15.40;99.90;;;;;;5068475;28;20024;-72
2021/08/18 01:38:49;;;;;;;14.65;7.25;;;15.40;99.90;;;;;;5068996;28;20123;-72
2021/08/18 01:41:15;;;;;;;11.07;6.50;;;15.40;99.90;;;;;;5070587;28;20029;-71
2021/08/18 01:43:40;;;;;;;9.65;6.00;;;15.40;99.90;;;;;;5070127;28;20078;-72
2021/08/18 01:46:06;;;;;;;11.10;6.50;;;15.40;99.90;;;;;;5070478;28;20031;-71
2021/08/18 01:48:33;;;;;;;9.82;5.22;;;15.40;99.90;;;;;;5068014;28;20435;-72
2021/08/18 01:51:03;;;;;;;7.22;4.55;;;15.40;99.90;;;;;;5070641;28;20044;-71
2021/08/18 01:53:35;;;;;;;10.20;5.68;;;15.40;99.90;;;;;;5070028;28;20024;-73
2021/08/18 01:56:05;;;;;;;10.35;6.50;;;15.40;99.90;;;;;;5069331;28;20186;-72
2021/08/18 01:58:34;;;;;;;10.82;6.07;;;15.40;99.90;;;;;;5068523;28;20081;-73
2021/08/18 02:01:01;;;;;;;9.20;5.07;;;15.40;99.90;;;;;;5068757;28;20460;-72
2021/08/18 02:03:26;;;;;;;10.95;5.70;;;15.40;99.90;;;;;;5068427;28;20121;-72
2021/08/18 02:05:52;;;;;;;8.38;5.00;;;15.40;99.90;;;;;;5070655;28;20064;-72
2021/08/18 02:08:18;;;;;;;9.18;5.40;;;15.40;99.90;;;;;;5070182;28;20025;-72
2021/08/18 02:10:43;;;;;;;9.68;4.50;;;15.40;99.90;;;;;;5068337;28;20032;-72
2021/08/18 02:13:10;;;;;;;8.80;3.85;;;15.40;99.90;;;;;;5068803;28;20346;-72
2021/08/18 02:15:36;;;;;;;8.38;4.13;;;15.40;99.90;;;;;;5069309;28;20512;-71
2021/08/18 02:18:03;;;;;;;6.05;4.55;;;15.40;99.90;;;;;;5069739;28;20036;-71
2021/08/18 02:20:32;;;;;;;7.97;4.03;;;15.40;99.90;;;;;;5067440;28;20055;-71
2021/08/18 02:22:59;;;;;;;4.40;3.88;;;15.40;99.90;;;;;;5068397;28;20213;-71
2021/08/18 02:25:25;;;;;;;4.97;3.25;;;15.50;99.90;;;;;;5069018;28;20373;-73
2021/08/18 02:27:51;;;;;;;4.75;3.17;;;15.50;99.90;;;;;;5070815;28;20025;-72
2021/08/18 02:30:20;;;;;;;6.57;3.85;;;15.50;99.90;;;;;;5074099;28;20043;-72
2021/08/18 02:32:47;;;;;;;5.05;3.10;;;15.50;99.90;;;;;;5071541;28;20044;-72
2021/08/18 02:35:14;;;;;;;7.53;3.67;;;15.50;99.90;;;;;;5073272;28;20055;-72
2021/08/18 02:37:41;;;;;;;4.70;3.35;;;15.40;99.90;;;;;;5071629;28;20039;-73
2021/08/18 02:40:09;;;;;;;6.28;3.70;;;15.50;99.90;;;;;;5073201;28;20042;-72
2021/08/18 02:42:35;;;;;;;4.93;3.45;;;15.50;99.90;;;;;;5072503;28;20485;-72
2021/08/18 02:45:01;;;;;;;9.13;3.85;;;15.50;99.90;;;;;;5072141;28;20082;-72
2021/08/18 02:47:27;;;;;;;5.05;2.90;;;15.40;99.90;;;;;;5072564;28;20381;-72
2021/08/18 02:49:53;;;;;;;6.95;3.30;;;15.50;99.90;;;;;;5073257;28;20039;-71
2021/08/18 02:52:19;;;;;;;6.45;3.15;;;15.50;99.90;;;;;;5073117;28;20040;-72
2021/08/18 02:54:44;;;;;;;7.20;3.47;;;15.40;99.90;;;;;;5072770;28;20024;-71
2021/08/18 02:57:10;;;;;;;3.42;2.40;;;15.40;99.90;;;;;;5072092;28;20117;-71
2021/08/18 02:59:36;;;;;;;3.42;2.63;;;15.40;99.90;;;;;;5071376;28;20024;-71
2021/08/18 03:02:02;;;;;;;4.18;2.85;;;15.40;99.90;;;;;;5071961;28;20033;-71
2021/08/18 03:04:27;;;;;;;3.42;2.50;;;15.40;99.90;;;;;;5071345;28;20089;-72
2021/08/18 03:06:54;;;;;;;3.55;2.33;;;15.40;99.90;;;;;;5071895;28;20102;-72
2021/08/18 03:09:24;;;;;;;7.20;2.90;;;15.40;99.90;;;;;;5073295;28;20021;-71
2021/08/18 03:11:50;;;;;;;5.35;2.83;;;15.40;99.90;;;;;;5071119;28;20036;-72
2021/08/18 03:14:16;;;;;;;4.03;2.92;;;15.40;99.90;;;;;;5073452;28;20107;-72
2021/08/18 03:16:42;;;;;;;4.57;2.72;;;15.40;99.90;;;;;;5071079;28;20424;-72
2021/08/18 03:19:07;;;;;;;4.43;2.53;;;15.40;99.90;;;;;;5073196;28;20040;-72
2021/08/18 03:21:33;;;;;;;5.07;2.90;;;15.50;99.90;;;;;;5071817;28;20048;-72
2021/08/18 03:23:59;;;;;;;4.40;2.60;;;15.50;99.90;;;;;;5073078;28;20027;-72
2021/08/18 03:26:25;;;;;;;3.55;2.65;;;15.60;99.90;;;;;;5072648;28;20053;-72
2021/08/18 03:28:50;;;;;;;4.80;3.22;;;15.50;99.90;;;;;;5072022;28;20029;-72
2021/08/18 03:31:16;;;;;;;4.05;2.70;;;15.50;99.90;;;;;;5072758;28;20065;-71
2021/08/18 03:33:42;;;;;;;5.07;2.70;;;15.40;99.90;;;;;;5071911;28;20024;-71
2021/08/18 03:36:07;;;;;;;4.70;2.50;;;15.40;99.90;;;;;;5070904;28;20028;-71
2021/08/18 03:38:33;;;;;;;10.00;3.30;;;15.40;99.90;;;;;;5071499;28;20096;-71
2021/08/18 03:40:59;;;;;;;5.35;2.80;;;15.40;99.90;;;;;;5072015;28;20040;-71
2021/08/18 03:43:24;;;;;;;2.70;2.47;;;15.40;99.90;;;;;;5070948;28;20044;-72
2021/08/18 03:45:50;;;;;;;3.88;2.50;;;15.40;99.90;;;;;;5071278;28;20036;-73
2021/08/18 03:48:16;;;;;;;5.05;2.70;;;15.40;99.90;;;;;;5070846;28;20146;-72
2021/08/18 03:50:41;;;;;;;5.43;2.15;;;15.40;99.90;;;;;;5069783;28;20033;-71
2021/08/18 03:53:07;;;;;;;3.13;2.20;;;15.50;99.90;;;;;;5071599;28;20104;-71
2021/08/18 03:55:33;;;;;;;5.22;3.03;;;15.50;99.90;;;;;;5071625;28;20099;-71
2021/08/18 03:57:58;;;;;;;4.47;2.88;;;15.40;99.90;;;;;;5072337;28;20031;-73
2021/08/18 04:00:24;;;;;;;3.92;2.90;;;15.40;99.90;;;;;;5071598;28;20094;-71
2021/08/18 04:02:50;;;;;;;4.35;2.92;;;15.40;99.90;;;;;;5069766;28;20040;-71
2021/08/18 04:05:15;;;;;;;5.75;2.80;;;15.50;99.90;;;;;;5071904;28;20064;-71
2021/08/18 04:07:41;;;;;;;5.22;3.08;;;15.50;99.90;;;;;;5070768;28;20046;-71
2021/08/18 04:10:08;;;;;;;5.53;3.15;;;15.50;99.90;;;;;;5070175;28;20050;-71
2021/08/18 04:12:53;;;;;;;6.47;3.25;;;15.50;99.90;;;;;;5071096;28;20164;-72
2021/08/18 04:15:20;;;;;;;5.47;3.38;;;15.50;99.90;;;;;;5070325;28;20021;-73
2021/08/18 04:17:46;;;;;;;3.92;2.97;;;15.50;99.90;;;;;;5071017;28;20021;-72
2021/08/18 04:20:12;;;;;;;6.70;3.20;;;15.50;99.90;;;;;;5071330;28;20543;-72
2021/08/18 04:22:40;;;;;;;4.22;2.70;;;15.50;99.90;;;;;;5069516;28;20032;-72
2021/08/18 04:25:10;;;;;;;6.80;2.72;;;15.50;99.90;;;;;;5070184;28;20028;-72
2021/08/18 04:27:36;;;;;;;4.35;3.28;;;15.50;99.90;;;;;;5070755;28;20328;-73
2021/08/18 04:30:03;;;;;;;5.88;3.25;;;15.50;99.90;;;;;;5069851;28;20028;-73
2021/08/18 04:32:28;;;;;;;6.20;2.50;;;15.50;99.90;;;;;;5069990;28;20115;-73
2021/08/18 04:34:54;;;;;;;4.13;2.92;;;15.60;99.90;;;;;;5070417;28;20554;-73
2021/08/18 04:37:20;;;;;;;4.63;2.50;;;15.60;99.90;;;;;;5070670;28;20028;-72
2021/08/18 04:39:45;;;;;;;5.57;3.03;;;15.60;99.90;;;;;;5070550;28;20472;-74
2021/08/18 04:42:11;;;;;;;10.00;2.90;;;15.60;99.90;;;;;;5069718;28;20024;-73
2021/08/18 04:44:36;;;;;;;4.20;2.45;;;15.60;99.90;;;;;;5070434;28;20453;-74
2021/08/18 04:47:02;;;;;;;4.93;3.08;;;15.70;99.90;;;;;;5071214;28;20104;-73
2021/08/18 04:49:28;;;;;;;2.95;2.58;;;15.60;99.90;;;;;;5070842;28;20032;-73
2021/08/18 04:51:53;;;;;;;4.40;2.70;;;15.70;99.90;;;;;;5069421;28;20040;-73
2021/08/18 04:54:19;;;;;;;2.90;2.33;;;15.70;99.90;;;;;;5069473;28;20115;-73
2021/08/18 04:56:44;;;;;;;6.97;2.97;;;15.60;99.90;;;;;;5070473;28;20032;-73
2021/08/18 04:59:10;;;;;;;7.80;3.15;;;15.70;99.90;;;;;;5070909;28;20490;-72
2021/08/18 05:01:35;;;;;;;6.70;2.67;;;15.60;99.90;;;;;;5069018;28;20029;-72
2021/08/18 05:04:01;;;;;;;8.32;2.67;;;15.70;99.90;;;;;;5071373;28;20378;-71
2021/08/18 05:06:27;;;;;;;6.93;2.85;;;15.70;99.90;;;;;;5071184;28;20177;-71
2021/08/18 05:08:53;;;;;;;4.57;2.30;;;15.70;99.90;;;;;;5070259;28;20024;-72
2021/08/18 05:11:18;;;;;;;7.20;2.92;;;15.70;99.90;;;;;;5070958;28;20028;-72
2021/08/18 05:13:44;;;;;;;8.68;3.00;;;15.80;99.90;;;;;;5070593;28;20040;-72
2021/08/18 05:16:09;;;;;;;4.30;2.35;;;15.80;99.90;;;;;;5069250;28;20024;-72
2021/08/18 05:18:35;;;;;;;5.63;2.35;;;15.70;99.90;;;;;;5070044;28;20101;-72
2021/08/18 05:21:01;;;;;;;6.43;2.28;;;15.70;99.90;;;;;;5069987;28;20053;-72
2021/08/18 05:23:27;;;;;;;4.47;2.45;;;15.80;99.90;;;;;;5069397;28;20497;-72
2021/08/18 05:25:52;;;;;;;3.65;2.40;;;15.70;99.90;;;;;;5069857;28;20072;-71
2021/08/18 05:28:19;;;;;;;4.60;2.53;;;15.80;99.90;;;;;;5070906;28;20031;-72
2021/08/18 05:30:44;;;;;;;3.53;2.13;;;15.80;99.90;;;;;;5069988;28;20040;-72
2021/08/18 05:33:10;;;;;;;3.78;2.00;;;15.90;99.90;;;;;;5071972;28;20483;-72
2021/08/18 05:35:36;;;;;;;5.78;2.58;;;15.90;99.90;;;;;;5069404;28;20106;-73
2021/08/18 05:38:01;;;;;;;2.63;1.92;;;15.90;99.90;;;;;;5070398;28;20060;-72
2021/08/18 05:40:27;;;;;;;3.42;2.05;;;16.00;99.90;;;;;;5068773;28;20432;-73
2021/08/18 05:42:53;;;;;;;4.13;2.13;;;16.00;99.90;;;;;;5069583;28;20104;-72
2021/08/18 05:45:19;;;;;;;5.05;2.00;;;16.00;99.90;;;;;;5068942;28;20422;-72
2021/08/18 05:47:44;;;;;;;4.18;2.00;;;16.00;99.90;;;;;;5068257;28;20067;-72
2021/08/18 05:50:11;;;;;;;2.45;1.73;;;15.90;99.90;;;;;;5068583;28;20036;-73
2021/08/18 05:52:37;;;;;;;2.22;1.75;;;15.90;99.90;;;;;;5068152;28;20024;-72
2021/08/18 05:55:04;;;;;;;4.03;1.85;;;15.90;99.90;;;;;;5069675;28;20025;-72
2021/08/18 05:57:30;;;;;;;5.15;2.38;;;15.90;99.90;;;;;;5068536;28;20024;-72
2021/08/18 05:59:56;;;;;;;3.45;1.88;;;16.00;99.90;;;;;;5069235;28;20029;-72
2021/08/18 06:02:22;;;;;;;1.77;1.40;;;16.10;99.90;;;;;;5069626;28;20033;-72
2021/08/18 06:04:48;;;;;;;3.15;2.08;;;16.10;99.90;;;;;;5072782;28;20211;-71
2021/08/18 06:07:14;;;;;;;2.60;1.73;;;16.10;99.90;;;;;;5072496;28;20048;-72
2021/08/18 06:09:40;;;;;;;4.43;1.75;;;16.10;99.90;;;;;;5072856;28;20029;-72
2021/08/18 06:12:06;;;;;;;2.97;1.30;;;16.20;99.90;;;;;;5074232;28;20056;-72
2021/08/18 06:14:32;;;;;;;4.10;1.40;;;16.20;99.90;;;;;;5073221;28;20060;-72
2021/08/18 06:16:58;;;;;;;5.03;1.52;;;16.20;99.90;;;;;;5072733;28;20059;-72
2021/08/18 06:19:24;;;;;;;1.52;1.35;;;16.30;99.90;;;;;;5073126;28;20021;-72
2021/08/18 06:21:50;;;;;;;1.65;1.20;;;16.30;99.90;;;;;;5072822;28;20049;-72
2021/08/18 06:24:27;;;;;;;3.33;1.30;;;16.20;99.90;;;;;;5073366;28;20373;-72
2021/08/18 06:26:55;;;;;;;9.57;2.22;;;16.30;99.90;;;;;;5071374;28;20442;-76
2021/08/18 06:29:21;;;;;;;1.80;1.20;;;16.40;99.90;;;;;;5073810;28;20029;-73
2021/08/18 06:31:48;;;;;;;3.38;1.20;;;16.40;99.90;;;;;;5072846;28;20032;-74
2021/08/18 06:34:14;;;;;;;2.25;1.20;;;16.50;99.90;;;;;;5072026;28;20465;-74
2021/08/18 06:36:40;;;;;;;5.00;1.20;;;16.60;99.90;;;;;;5072732;28;20345;-73
2021/08/18 06:39:06;;;;;;;2.85;1.42;;;16.70;99.90;;;;;;5071600;28;20025;-73
2021/08/18 06:41:31;;;;;;;0.90;0.70;;;16.70;99.90;;;;;;5071733;28;20378;-73
2021/08/18 06:43:57;;;;;;;2.83;0.82;;;16.80;99.90;;;;;;5072772;28;20555;-74
2021/08/18 06:46:23;;;;;;;1.60;0.90;;;16.80;99.90;;;;;;5072950;28;20055;-73
2021/08/18 06:48:48;;;;;;;7.50;1.10;;;16.80;99.90;;;;;;5070889;28;20036;-73
2021/08/18 06:51:16;;;;;;;1.30;0.70;;;16.90;99.90;;;;;;5071080;28;20044;-73
2021/08/18 06:53:43;;;;;;;1.02;0.80;;;16.90;99.90;;;;;;5071206;28;20418;-74
2021/08/18 06:56:09;;;;;;;1.83;0.60;;;16.70;99.90;;;;;;5073499;28;20411;-72
2021/08/18 06:58:36;;;;;;;1.45;0.70;;;16.70;99.90;;;;;;5072776;28;20049;-73
2021/08/18 07:01:01;;;;;;;5.57;0.77;;;16.70;99.90;;;;;;5072324;28;20123;-72
2021/08/18 07:03:27;;;;;;;8.07;1.13;;;16.80;99.90;;;;;;5072939;28;20429;-72
2021/08/18 07:05:53;;;;;;;1.73;0.85;;;16.80;99.90;;;;;;5076426;28;20056;-72
2021/08/18 07:08:18;;;;;;;2.38;1.00;;;16.80;99.90;;;;;;5092605;28;20093;-68
2021/08/18 07:10:44;;;;;;;3.30;1.20;;;16.90;99.90;;;;;;5079531;28;20386;-64
2021/08/18 07:13:10;;;;;;;1.95;1.42;;;17.30;99.90;;;;;;5070746;28;20077;-66
2021/08/18 07:15:35;;;;;;;2.10;1.52;;;18.10;99.90;;;;;;5072196;28;20024;-61
2021/08/18 07:18:02;;;;;;;1.45;1.15;;;18.20;99.90;;;;;;5071480;28;20261;-62
2021/08/18 07:20:28;;;;;;;1.00;0.70;;;18.30;99.90;;;;;;5071724;28;20488;-61
2021/08/18 07:22:54;;;;;;;3.03;1.10;;;18.30;99.90;;;;;;5071131;28;20056;-61
2021/08/18 07:25:20;;;;;;;3.70;1.13;;;18.40;99.90;;;;;;5071674;28;20524;-62
2021/08/18 07:27:46;;;;;;;3.17;1.00;;;18.40;99.90;;;;;;5071207;28;20102;-62
2021/08/18 07:30:12;;;;;;;4.05;1.02;;;18.50;99.90;;;;;;5072088;28;20059;-63
2021/08/18 07:32:38;;;;;;;2.63;1.15;;;18.90;99.90;;;;;;5069794;28;20059;-62
2021/08/18 07:35:05;;;;;;;5.80;1.30;;;18.50;99.90;;;;;;5088508;28;20070;-62
2021/08/18 07:37:31;;;;;;;4.30;1.60;;;18.70;99.90;;;;;;5082871;28;20385;-62
2021/08/18 07:39:57;;;;;;;3.00;0.93;;;19.00;99.90;;;;;;5070798;28;20029;-62
2021/08/18 07:42:23;;;;;;;6.82;1.02;;;19.00;99.90;;;;;;5071098;28;20044;-63
2021/08/18 07:44:49;;;;;;;3.63;1.02;;;18.90;99.90;;;;;;5069415;28;20028;-61
2021/08/18 07:47:15;;;;;;;3.92;1.20;;;18.70;99.90;;;;;;5072122;28;20063;-61
2021/08/18 07:49:41;;;;;;;2.25;0.93;;;18.70;99.90;;;;;;5071889;28;20041;-61
2021/08/18 07:52:07;;;;;;;2.45;0.80;;;18.60;99.90;;;;;;5071635;28;20478;-61
2021/08/18 07:54:33;;;;;;;3.22;0.93;;;18.80;99.90;;;;;;5071760;28;20060;-61
2021/08/18 07:56:59;;;;;;;2.53;0.80;;;18.80;99.90;;;;;;5071042;28;20024;-61
2021/08/18 07:59:25;;;;;;;2.33;1.08;;;19.10;99.90;;;;;;5071774;28;20101;-60
2021/08/18 08:01:51;;;;;;;2.40;1.13;;;19.00;99.90;;;;;;5070995;28;20138;-61
2021/08/18 08:04:17;;;;;;;1.67;0.70;;;19.00;99.90;;;;;;5071932;28;20107;-61
2021/08/18 08:06:44;;;;;;;0.90;0.75;;;18.90;99.90;;;;;;5069986;28;20028;-66
2021/08/18 08:09:10;;;;;;;3.42;1.42;;;19.00;99.90;;;;;;5071639;28;20082;-61
2021/08/18 08:11:36;;;;;;;1.52;0.70;;;18.80;99.90;;;;;;5070258;28;20419;-62
2021/08/18 08:14:01;;;;;;;1.73;1.55;;;18.80;99.90;;;;;;5071093;28;20206;-62
2021/08/18 08:16:27;;;;;;;4.03;1.25;;;18.80;99.90;;;;;;5071714;28;20033;-60
2021/08/18 08:18:53;;;;;;;3.05;0.90;;;18.90;99.90;;;;;;5070968;28;20099;-71
2021/08/18 08:21:18;;;;;;;3.08;1.52;;;18.50;99.90;;;;;;5069392;28;20409;-72
2021/08/18 08:23:44;;;;;;;5.13;0.90;;;18.20;99.90;;;;;;5070942;28;20090;-46
2021/08/18 08:26:09;;;;;;;1.23;0.80;;;17.80;99.90;;;;;;5070986;28;20025;-45
2021/08/18 08:28:35;;;;;;;0.75;0.60;;;18.20;99.90;;;;;;5071243;28;20025;-45
2021/08/18 08:31:01;;;;;;;6.88;1.20;;;18.40;99.90;;;;;;5070784;28;20434;-45
2021/08/18 08:33:26;;;;;;;5.38;1.60;;;18.50;99.90;;;;;;5069828;28;20372;-44
2021/08/18 08:35:52;;;;;;;8.57;1.88;;;18.70;99.90;;;;;;5078821;28;20457;-44
2021/08/18 08:38:18;;;;;;;3.83;1.35;;;19.00;99.90;;;;;;5089290;28;20032;-45
2021/08/18 08:40:44;;;;;;;3.03;1.05;;;19.00;99.90;;;;;;5090001;28;20036;-44
2021/08/18 08:43:13;;;;;;;6.00;1.00;;;19.00;99.90;;;;;;5091246;28;20099;-45
2021/08/18 08:45:42;;;;;;;4.22;0.90;;;19.10;99.90;;;;;;5090915;28;20066;-45
2021/08/18 08:48:08;;;;;;;4.85;0.95;;;19.20;99.90;;;;;;5089138;28;20120;-44
2021/08/18 08:50:34;;;;;;;2.28;1.00;;;19.10;99.90;;;;;;5090811;28;20038;-45
2021/08/18 08:52:59;;;;;;;2.08;0.63;;;19.00;99.90;;;;;;5090306;28;20039;-45
2021/08/18 08:55:26;;;;;;;5.65;1.30;;;19.00;99.90;;;;;;5091176;28;20024;-45
2021/08/18 08:57:54;;;;;;;2.67;0.70;;;18.90;99.90;;;;;;5090358;28;20024;-45
2021/08/18 09:00:21;;;;;;;1.40;0.88;;;19.00;99.90;;;;;;5089485;28;20020;-46
2021/08/18 09:02:47;;;;;;;8.13;1.13;;;19.10;99.90;;;;;;5090652;28;20060;-47
2021/08/18 09:05:26;;;;;;;2.50;1.05;;;19.00;99.90;;;;;;5090896;28;20443;-45
2021/08/18 09:07:59;;;;;;;5.38;1.25;;;19.10;99.90;;;;;;5091196;28;20502;-45
2021/08/18 09:10:26;;;;;;;0.93;0.73;;;19.20;99.90;;;;;;5090054;28;20067;-45
2021/08/18 09:13:07;;;;;;;3.13;0.90;;;19.40;99.90;;;;;;5090286;28;20052;-46
2021/08/18 09:15:32;;;;;;;4.87;0.60;;;19.40;99.90;;;;;;5089291;28;20028;-45
2021/08/18 09:17:58;;;;;;;1.90;0.68;;;19.40;99.90;;;;;;5089817;28;20126;-44
2021/08/18 09:20:30;;;;;;;6.85;0.90;;;19.50;99.90;;;;;;5089213;28;20056;-44
2021/08/18 09:22:58;;;;;;;1.90;1.13;;;19.60;99.90;;;;;;5090345;28;20142;-45
2021/08/18 09:25:29;;;;;;;4.35;1.00;;;19.60;99.90;;;;;;5090600;28;20032;-45
2021/08/18 09:28:04;;;;;;;25.23;3.67;;;19.40;99.90;;;;;;5089250;28;20047;-45
2021/08/18 09:30:38;;;;;;;15.55;3.08;;;19.40;99.90;;;;;;5089830;28;20113;-46
2021/08/18 09:33:19;;;;;;;18.98;2.63;;;19.40;99.90;;;;;;5090599;28;20051;-47
2021/08/18 09:35:53;;;;;;;11.75;1.90;;;19.90;99.90;;;;;;5091119;28;20020;-47
2021/08/18 09:38:19;;;;;;;10.65;2.45;;;20.00;99.90;;;;;;5094443;28;20463;-47
2021/08/18 09:40:48;;;;;;;5.05;1.02;;;20.20;99.90;;;;;;5093304;28;20040;-47
2021/08/18 09:43:24;;;;;;;7.20;2.13;;;20.30;99.90;;;;;;5093356;28;20028;-47
2021/08/18 09:45:59;;;;;;;7.10;1.55;;;20.30;99.90;;;;;;5092635;28;20035;-48
2021/08/18 09:48:27;;;;;;;5.95;1.63;;;20.50;99.90;;;;;;5094309;28;20031;-47
2021/08/18 09:51:00;;;;;;;3.83;0.90;;;20.60;99.90;;;;;;5092582;28;20090;-47
2021/08/18 09:53:32;;;;;;;2.30;1.13;;;20.50;99.90;;;;;;5093508;28;20476;-47
2021/08/18 09:56:03;;;;;;;3.03;1.17;;;20.60;99.90;;;;;;5093051;28;20085;-47
2021/08/18 09:58:32;;;;;;;3.80;1.05;;;20.40;99.90;;;;;;5095249;28;20020;-47
2021/08/18 10:01:03;;;;;;;5.25;1.25;;;20.40;99.90;;;;;;5094587;28;20047;-47
2021/08/18 10:03:31;;;;;;;3.30;1.45;;;20.60;99.90;;;;;;5079073;28;20086;-47
2021/08/18 10:05:58;;;;;;;5.22;1.10;;;20.60;99.90;;;;;;5085873;28;20038;-47
2021/08/18 10:08:24;;;;;;;3.40;0.88;;;20.50;99.90;;;;;;5093769;28;20028;-48
2021/08/18 10:10:51;;;;;;;2.35;1.30;;;20.60;99.90;;;;;;5093488;28;20111;-54
2021/08/18 10:13:17;;;;;;;2.95;1.13;;;20.70;99.90;;;;;;5093291;28;20082;-48
2021/08/18 10:15:44;;;;;;;2.05;1.17;;;20.70;99.90;;;;;;5074589;28;20024;-55
2021/08/18 10:18:10;;;;;;;4.30;1.40;;;20.80;99.90;;;;;;5084936;28;20028;-48
2021/08/18 10:20:37;;;;;;;3.35;1.20;;;20.80;99.90;;;;;;5089632;28;20052;-49
2021/08/18 10:23:10;;;;;;;2.25;0.80;;;20.90;99.90;;;;;;5090966;28;20107;-48
2021/08/18 10:25:46;;;;;;;1.60;0.50;;;21.10;99.90;;;;;;5086962;28;20028;-51
2021/08/18 10:28:12;;;;;;;1.52;1.08;;;21.00;99.90;;;;;;5081426;28;20077;-49
2021/08/18 10:30:53;;;;;;;4.78;1.00;;;20.90;99.90;;;;;;5077137;28;20030;-49
2021/08/18 10:33:53;;;;;;;1.88;1.00;;;20.80;99.90;;;;;;5075745;28;20016;-49
2021/08/18 10:36:53;;;;;;;4.13;1.15;;;20.90;99.90;;;;;;5087424;28;20028;-48
2021/08/18 10:39:18;;;;;;;1.70;0.93;;;21.10;99.90;;;;;;5038019;28;20040;-49
2021/08/18 10:42:09;;;;;;;2.65;0.80;;;21.20;99.90;;;;;;5093351;28;20449;-48
2021/08/18 10:44:41;;;;;;;5.22;0.75;;;21.20;99.90;;;;;;5089383;28;20092;-48
2021/08/18 10:47:32;;;;;;;1.55;0.50;;;21.30;99.90;;;;;;5091443;28;20095;-55
2021/08/18 10:50:12;;;;;;;9.45;1.23;;;21.20;99.90;;;;;;5090934;28;20037;-48
2021/08/18 10:52:37;;;;;;;2.50;0.73;;;21.30;99.90;;;;;;5091861;28;20105;-48
2021/08/18 10:55:04;;;;;;;3.10;0.73;;;21.30;99.90;;;;;;5091294;28;20403;-47
2021/08/18 10:57:39;;;;;;;4.43;0.75;;;21.30;99.90;;;;;;5091603;28;20027;-47
2021/08/18 11:00:16;;;;;;;4.15;1.08;;;21.20;99.90;;;;;;5092661;28;20024;-47
2021/08/18 11:03:00;;;;;;;1.08;0.70;;;21.10;99.90;;;;;;5091692;28;20051;-48
2021/08/18 11:05:30;;;;;;;5.78;1.08;;;21.20;99.90;;;;;;5091624;28;20476;-47
2021/08/18 11:08:26;;;;;;;3.83;1.10;;;21.20;99.90;;;;;;5092357;28;20160;-48
2021/08/18 11:10:55;;;;;;;7.32;2.72;;;21.40;99.90;;;;;;5085842;28;20146;-61
2021/08/18 11:13:47;;;;;;;23.10;6.07;;;21.50;99.90;;;;;;5075448;28;20060;-48
2021/08/18 11:16:26;;;;;;;8.75;3.50;;;21.90;99.90;;;;;;5086150;28;20028;-48
2021/08/18 11:19:01;;;;;;;6.70;2.05;;;22.20;99.90;;;;;;5077846;28;20033;-60
2021/08/18 11:21:32;;;;;;;5.30;1.38;;;22.60;99.90;;;;;;5069454;28;20092;-47
2021/08/18 11:24:04;;;;;;;3.15;0.73;;;22.70;99.90;;;;;;5071784;28;20504;-48
2021/08/18 11:26:38;;;;;;;5.82;1.20;;;22.60;99.90;;;;;;5083512;28;20036;-48
2021/08/18 11:29:13;;;;;;;10.57;2.13;;;22.60;99.90;;;;;;5074838;28;20028;-49
2021/08/18 11:31:57;;;;;;;1.00;0.90;;;22.60;99.90;;;;;;5088436;28;20032;-50
2021/08/18 11:34:38;;;;;;;4.97;1.25;;;22.80;99.90;;;;;;5089738;28;20115;-49
2021/08/18 11:37:08;;;;;;;8.02;1.25;;;22.90;99.90;;;;;;5089592;28;20107;-48
2021/08/18 11:39:37;;;;;;;2.47;0.80;;;23.10;99.90;;;;;;5090981;28;20043;-50
2021/08/18 11:42:16;;;;;;;1.38;0.60;;;23.00;99.90;;;;;;5089769;28;20104;-48
2021/08/18 11:44:43;;;;;;;4.13;0.75;;;22.90;99.90;;;;;;5085292;28;20562;-57
2021/08/18 11:47:10;;;;;;;10.95;1.42;;;22.70;99.90;;;;;;5089733;28;20065;-48
2021/08/18 11:49:37;;;;;;;4.25;0.80;;;22.40;99.90;;;;;;5090882;28;20103;-48
2021/08/18 11:52:05;;;;;;;4.82;0.88;;;22.40;99.90;;;;;;5089304;28;20109;-48
2021/08/18 11:54:31;;;;;;;6.28;1.67;;;22.40;99.90;;;;;;5075592;28;20032;-48
2021/08/18 11:57:04;;;;;;;5.43;0.88;;;22.40;99.90;;;;;;5085881;28;20381;-52
2021/08/18 11:59:31;;;;;;;1.58;0.70;;;22.30;99.90;;;;;;5076741;28;20042;-47
2021/08/18 12:01:57;;;;;;;2.67;0.73;;;22.30;99.90;;;;;;5079368;28;20145;-57
2021/08/18 12:04:24;;;;;;;3.33;0.93;;;22.20;99.90;;;;;;5083650;28;20482;-54
2021/08/18 12:07:13;;;;;;;2.42;0.65;;;22.10;99.90;;;;;;5080398;28;20028;-47
2021/08/18 12:10:10;;;;;;;6.10;1.45;;;22.00;99.90;;;;;;5090265;28;20049;-47
2021/08/18 12:12:36;;;;;;;2.00;0.73;;;21.90;99.90;;;;;;5089725;28;20070;-49
2021/08/18 12:15:09;;;;;;;1.73;0.52;;;22.10;99.90;;;;;;5087628;28;20147;-47
2021/08/18 12:17:43;;;;;;;2.03;0.45;;;21.90;99.90;;;;;;5088633;28;20028;-45
2021/08/18 12:20:27;;;;;;;1.42;0.88;;;21.80;99.90;;;;;;5083680;28;20048;-46
2021/08/18 12:22:53;;;;;;;2.08;0.63;;;21.80;99.90;;;;;;5087476;28;20064;-46
2021/08/18 12:25:19;;;;;;;2.78;0.68;;;21.90;99.90;;;;;;5089870;28;20024;-46
2021/08/18 12:27:44;;;;;;;3.75;0.77;;;21.90;99.90;;;;;;5090112;28;20141;-46
2021/08/18 12:30:12;;;;;;;1.60;0.70;;;22.20;99.90;;;;;;5089244;28;20027;-45
2021/08/18 12:32:39;;;;;;;2.08;0.73;;;22.20;99.90;;;;;;5089880;28;20207;-45
2021/08/18 12:35:10;;;;;;;1.10;0.80;;;22.20;99.90;;;;;;5089007;28;20111;-45
2021/08/18 12:37:39;;;;;;;2.20;1.42;;;22.10;99.90;;;;;;5090377;28;20089;-45
2021/08/18 12:40:06;;;;;;;2.25;1.30;;;22.10;99.90;;;;;;5089744;28;20434;-45
2021/08/18 12:42:33;;;;;;;1.15;0.60;;;22.20;99.90;;;;;;5089441;28;20031;-45
2021/08/18 12:45:19;;;;;;;6.28;0.90;;;22.40;99.90;;;;;;5088731;28;20031;-56
2021/08/18 12:47:54;;;;;;;1.30;0.60;;;22.60;99.90;;;;;;5089355;28;20038;-45